Página principal
METAR-TAF:

METAR-TAF

Aeroportos :

Aeroporto Internacional de Vladivostok

Vladivostok, Rússia

latitude: 43-07N, longitude: 131-56E, altura: 184 m

Observação actual do tempo

O boletim foi feito há 33 minutos, às 11:30 UTC
Vento calmo
Temperatura 11°C
Humidade 76%
Pressão 1012 hPa
Visibilidade 10 km ou mais

METAR: UHWW 261130Z 00000MPS 9999 NSC 11/07 Q1012 R25L/0///70 NOSIG RMK QFE758

Hora: 22:03 (12:03 UTC)

Previsão

O boletim foi feito há 1 hora e 3 minutos, às 11:00 UTC
Previsão válida de 26 às 12 UTC a 27 às 12 UTC
Vento 6 kt de su-sudeste
Visibilidade 10 km ou mais
A partir de 26 às 1300 UTC
Vento 6 kt de es-sudeste
Visibilidade: 3100 m
Nuvens fragmentadasa uma altura de 1100 ft
neblina
A partir de 27 às 0000 UTC
Vento 6 kt de sul
Visibilidade: 3500 m
Nuvens fragmentadasa uma altura de 1200 ft, Cumulonimbus.
aguaceiros fracos de chuva

TAF: UHWW 261100Z 2612/2712 15003MPS 9999 NSC FM261300 12003MPS 3100 BR BKN011 FM270000 18003MPS 3500 -SHRA BKN012CB

Observações e previsões do tempo de mais de 4000 aeroportos (mensagens METAR e TAF).

As estações disponíveis são os pontos amarelos e vermelhos sobre o mapa.

Mova o rato sobre o mapa para ver o nome da estação.

Depois clique no ponto para visualizar as observações e previsões meteorológicas.

Para alterar o mapa : clique nos botões verdes com uma cruz preta para aumentar o zoom; no botão verde com uma pitada de zoom; ou nas setas verdes para mapas adjacentes.


METAR-TAF: